createdAt,value
2023-03-21T00:01:52.530Z,10.91
2023-03-21T00:04:22.122Z,10.88
2023-03-21T00:06:51.074Z,10.86
2023-03-21T00:09:20.112Z,10.83
2023-03-21T00:11:49.323Z,10.81
2023-03-21T00:14:19.480Z,10.79
2023-03-21T00:16:49.944Z,10.78
2023-03-21T00:19:20.835Z,10.77
2023-03-21T00:22:06.560Z,10.76
2023-03-21T00:24:37.599Z,10.74
2023-03-21T00:27:43.007Z,10.73
2023-03-21T00:29:56.281Z,10.72
2023-03-21T00:32:25.235Z,10.71
2023-03-21T00:35:11.776Z,10.68
2023-03-21T00:37:43.181Z,10.66
2023-03-21T00:40:25.436Z,10.65
2023-03-21T00:42:56.782Z,10.64
2023-03-21T00:45:25.796Z,10.63
2023-03-21T00:47:54.996Z,10.62
2023-03-21T00:50:24.266Z,10.60
2023-03-21T00:52:53.282Z,10.60
2023-03-21T00:55:22.252Z,10.62
2023-03-21T00:58:01.281Z,10.62
2023-03-21T01:00:32.411Z,10.63
2023-03-21T01:03:17.586Z,10.65
2023-03-21T01:06:06.400Z,10.66
2023-03-21T01:08:51.051Z,10.66
2023-03-21T01:11:23.388Z,10.67
2023-03-21T01:13:59.875Z,10.67
2023-03-21T01:16:37.438Z,10.65
2023-03-21T01:19:15.018Z,10.62
2023-03-21T01:21:51.274Z,10.58
2023-03-21T01:24:20.589Z,10.55
2023-03-21T01:26:49.721Z,10.51
2023-03-21T01:29:18.719Z,10.47
2023-03-21T01:31:47.943Z,10.43
2023-03-21T01:34:16.982Z,10.35
2023-03-21T01:36:45.924Z,10.28
2023-03-21T01:39:15.050Z,10.24
2023-03-21T01:41:44.813Z,10.24
2023-03-21T01:44:17.088Z,10.23
2023-03-21T01:46:57.460Z,10.19
2023-03-21T01:49:41.108Z,10.11
2023-03-21T01:52:26.551Z,10.09
2023-03-21T01:55:04.578Z,10.10
2023-03-21T01:57:43.886Z,10.09
2023-03-21T02:00:17.871Z,10.07
2023-03-21T02:02:52.140Z,10.02
2023-03-21T02:05:27.545Z,9.97
2023-03-21T02:07:56.759Z,9.91
2023-03-21T02:10:27.010Z,9.91
2023-03-21T02:12:58.289Z,9.94
2023-03-21T02:15:28.061Z,9.98
2023-03-21T02:18:03.226Z,10.02
2023-03-21T02:21:05.306Z,10.06
2023-03-21T02:24:10.988Z,10.12
2023-03-21T02:27:21.838Z,10.15
2023-03-21T02:30:50.891Z,10.11
2023-03-21T02:34:03.883Z,10.04
2023-03-21T02:37:01.182Z,10.02
2023-03-21T02:39:40.962Z,10.02
2023-03-21T02:42:17.975Z,10.00
2023-03-21T02:44:50.418Z,9.97
2023-03-21T02:47:26.376Z,9.97
2023-03-21T02:49:56.649Z,9.94
2023-03-21T02:52:38.552Z,9.89
2023-03-21T02:55:13.334Z,9.82
2023-03-21T02:57:45.372Z,9.74
2023-03-21T03:00:20.199Z,9.74
2023-03-21T03:02:54.553Z,9.70
2023-03-21T03:05:31.206Z,9.68
2023-03-21T03:08:11.501Z,9.65
2023-03-21T03:10:54.244Z,9.64
2023-03-21T03:13:37.608Z,9.61
2023-03-21T03:16:19.307Z,9.57
2023-03-21T03:18:52.774Z,9.56
2023-03-21T03:21:29.953Z,9.56
2023-03-21T03:24:03.181Z,9.56
2023-03-21T03:26:36.956Z,9.48
2023-03-21T03:29:09.463Z,9.44
2023-03-21T03:31:44.269Z,9.44
2023-03-21T03:34:16.496Z,9.45
2023-03-21T03:36:50.955Z,9.46
2023-03-21T03:39:20.595Z,9.46
2023-03-21T03:42:10.196Z,9.48
2023-03-21T03:44:45.144Z,9.49
2023-03-21T03:47:32.219Z,9.48
2023-03-21T03:50:09.224Z,9.46
2023-03-21T03:52:55.361Z,9.43
2023-03-21T03:55:27.615Z,9.38
2023-03-21T03:57:56.861Z,9.36
2023-03-21T04:00:27.590Z,9.32
2023-03-21T04:02:58.553Z,9.28
2023-03-21T04:05:27.610Z,9.24
2023-03-21T04:07:56.596Z,9.19
2023-03-21T04:10:25.654Z,9.18
2023-03-21T04:12:54.601Z,9.16
2023-03-21T04:15:23.642Z,9.12
2023-03-21T04:17:52.770Z,9.13
2023-03-21T04:20:34.132Z,9.15
2023-03-21T04:23:05.136Z,9.16
2023-03-21T04:25:36.903Z,9.13
2023-03-21T04:28:07.639Z,9.12
2023-03-21T04:30:37.689Z,9.09
2023-03-21T04:33:07.332Z,9.08
2023-03-21T04:35:37.665Z,9.08
2023-03-21T04:38:06.847Z,9.09
2023-03-21T04:40:36.068Z,9.11
2023-03-21T04:43:05.304Z,9.14
2023-03-21T04:45:34.248Z,9.17
2023-03-21T04:48:03.891Z,9.16
2023-03-21T04:50:32.741Z,9.14
2023-03-21T04:53:01.750Z,9.17
2023-03-21T04:55:31.858Z,9.18
2023-03-21T04:58:00.894Z,9.22
2023-03-21T05:00:31.422Z,9.23
2023-03-21T05:03:00.527Z,9.22
2023-03-21T05:05:29.551Z,9.16
2023-03-21T05:07:59.993Z,9.11
2023-03-21T05:10:29.039Z,9.06
2023-03-21T05:12:58.109Z,9.04
2023-03-21T05:15:27.288Z,9.03
2023-03-21T05:17:58.109Z,9.01
2023-03-21T05:20:27.149Z,8.92
2023-03-21T05:22:56.127Z,8.81
2023-03-21T05:25:33.487Z,8.78
2023-03-21T05:28:03.892Z,8.81
2023-03-21T05:30:33.442Z,8.80
2023-03-21T05:33:03.103Z,8.78
2023-03-21T05:35:32.404Z,8.74
2023-03-21T05:38:01.474Z,8.72
2023-03-21T05:40:30.568Z,8.75
2023-03-21T05:42:59.492Z,8.77
2023-03-21T05:45:28.430Z,8.80
2023-03-21T05:47:57.507Z,8.87
2023-03-21T05:50:26.519Z,8.92
2023-03-21T05:52:55.573Z,9.00
2023-03-21T05:55:24.682Z,9.08
2023-03-21T05:57:53.737Z,9.18
2023-03-21T06:00:23.313Z,9.29
2023-03-21T06:02:52.177Z,9.40
2023-03-21T06:05:21.300Z,9.49
2023-03-21T06:07:50.423Z,9.57
2023-03-21T06:10:19.910Z,9.65
2023-03-21T06:12:48.866Z,9.74
2023-03-21T06:15:17.728Z,9.83
2023-03-21T06:17:46.701Z,9.86
2023-03-21T06:20:15.726Z,9.98
2023-03-21T06:22:44.862Z,10.02
2023-03-21T06:25:14.101Z,10.08
2023-03-21T06:27:43.050Z,10.16
2023-03-21T06:30:14.528Z,10.24
2023-03-21T06:32:43.466Z,10.27
2023-03-21T06:35:12.547Z,10.27
2023-03-21T06:37:42.409Z,10.30
2023-03-21T06:40:13.154Z,10.36
2023-03-21T06:42:42.096Z,10.49
2023-03-21T06:45:11.751Z,10.68
2023-03-21T06:47:40.891Z,10.89
2023-03-21T06:50:11.765Z,11.07
2023-03-21T06:52:40.605Z,11.25
2023-03-21T06:55:10.505Z,11.41
2023-03-21T06:57:39.413Z,11.52
2023-03-21T07:00:11.598Z,11.63
2023-03-21T07:02:40.909Z,11.79
2023-03-21T07:05:10.938Z,11.83
2023-03-21T07:07:40.453Z,11.80
2023-03-21T07:10:11.698Z,11.77
2023-03-21T07:12:40.593Z,11.70
2023-03-21T07:15:11.274Z,11.69
2023-03-21T07:17:40.374Z,11.74
2023-03-21T07:20:12.134Z,11.87
2023-03-21T07:22:41.300Z,12.04
2023-03-21T07:25:11.783Z,12.27
2023-03-21T07:27:41.700Z,12.54
2023-03-21T07:30:12.964Z,12.83
2023-03-21T07:32:42.658Z,13.11
2023-03-21T07:35:15.446Z,13.39
2023-03-21T07:37:44.420Z,13.70
2023-03-21T07:40:13.967Z,14.02
2023-03-21T07:42:43.329Z,14.35
2023-03-21T07:45:15.287Z,14.59
2023-03-21T07:47:44.824Z,14.84
2023-03-21T07:50:14.728Z,15.04
2023-03-21T07:52:43.853Z,15.34
2023-03-21T07:55:12.834Z,15.64
2023-03-21T07:57:41.782Z,15.95
2023-03-21T08:00:22.154Z,16.17
2023-03-21T08:02:57.062Z,16.31
2023-03-21T08:05:29.897Z,16.49
2023-03-21T08:07:58.856Z,16.54
2023-03-21T08:10:28.349Z,16.61
2023-03-21T08:12:57.877Z,16.73
2023-03-21T08:15:26.857Z,16.72
2023-03-21T08:17:55.778Z,16.80
2023-03-21T08:20:24.878Z,16.87
2023-03-21T08:22:54.077Z,17.01
2023-03-21T08:25:23.572Z,17.07
2023-03-21T08:27:52.958Z,17.28
2023-03-21T08:30:25.329Z,17.50
2023-03-21T08:33:00.522Z,17.51
2023-03-21T08:35:31.342Z,17.40
2023-03-21T08:38:01.774Z,17.44
2023-03-21T08:40:30.846Z,17.48
2023-03-21T08:43:00.192Z,17.30
2023-03-21T08:45:29.384Z,17.32
2023-03-21T08:47:58.486Z,17.44
2023-03-21T08:50:29.060Z,17.54
2023-03-21T08:52:58.189Z,17.66
2023-03-21T08:55:27.167Z,17.78
2023-03-21T08:57:57.561Z,17.97
2023-03-21T09:00:27.002Z,18.26
2023-03-21T09:02:58.132Z,18.63
2023-03-21T09:05:27.804Z,18.95
2023-03-21T09:07:57.133Z,19.12
2023-03-21T09:10:26.117Z,19.27
2023-03-21T09:12:55.686Z,19.30
2023-03-21T09:15:29.295Z,19.17
2023-03-21T09:18:12.371Z,19.05
2023-03-21T09:20:42.348Z,18.76
2023-03-21T09:23:12.651Z,18.65
2023-03-21T09:25:42.703Z,18.63
2023-03-21T09:28:12.619Z,18.64
2023-03-21T09:30:41.675Z,18.68
2023-03-21T09:33:18.694Z,18.74
2023-03-21T09:35:49.549Z,18.88
2023-03-21T09:38:20.275Z,18.89
2023-03-21T09:41:03.495Z,18.88
2023-03-21T09:43:43.985Z,18.97
2023-03-21T09:46:24.130Z,19.14
2023-03-21T09:48:59.020Z,19.33
2023-03-21T09:51:32.125Z,19.61
2023-03-21T09:54:07.558Z,19.93
2023-03-21T09:56:38.545Z,20.26
2023-03-21T09:59:11.357Z,20.56
2023-03-21T10:01:44.919Z,20.75
2023-03-21T10:04:18.213Z,20.89
2023-03-21T10:06:55.085Z,20.89
2023-03-21T10:09:27.637Z,20.66
2023-03-21T10:12:01.031Z,20.35
2023-03-21T10:14:33.023Z,20.36
2023-03-21T10:17:06.920Z,20.51
2023-03-21T10:19:35.978Z,20.78
2023-03-21T10:22:05.110Z,21.03
2023-03-21T10:24:35.152Z,21.25
2023-03-21T10:27:05.264Z,21.13
2023-03-21T10:29:44.242Z,20.76
2023-03-21T10:32:17.373Z,20.31
2023-03-21T10:34:50.532Z,19.78
2023-03-21T10:37:20.211Z,19.32
2023-03-21T10:39:51.618Z,18.95
2023-03-21T10:42:24.177Z,18.77
2023-03-21T10:44:54.614Z,18.64
2023-03-21T10:47:26.353Z,18.53
2023-03-21T10:50:11.598Z,18.57
2023-03-21T10:52:47.893Z,18.74
2023-03-21T10:55:28.261Z,19.02
2023-03-21T10:58:00.676Z,19.30
2023-03-21T11:00:35.927Z,19.49
2023-03-21T11:03:06.956Z,19.59
2023-03-21T11:05:40.092Z,19.67
2023-03-21T11:08:13.785Z,19.75
2023-03-21T11:11:00.108Z,19.74
2023-03-21T11:13:37.654Z,19.79
2023-03-21T11:16:10.342Z,19.79
2023-03-21T11:18:44.313Z,19.66
2023-03-21T11:21:15.079Z,19.59
2023-03-21T11:23:47.496Z,19.58
2023-03-21T11:26:26.347Z,19.58
2023-03-21T11:28:57.168Z,19.60
2023-03-21T11:31:38.503Z,19.61
2023-03-21T11:34:09.730Z,19.63
2023-03-21T11:36:39.060Z,19.65
2023-03-21T11:39:33.383Z,19.67
2023-03-21T11:42:02.630Z,19.61
2023-03-21T11:44:34.997Z,19.54
2023-03-21T11:47:04.154Z,19.54
2023-03-21T11:49:33.035Z,19.54
2023-03-21T11:52:11.864Z,19.49
2023-03-21T11:54:58.335Z,19.50
2023-03-21T11:57:36.737Z,19.50
2023-03-21T12:00:15.349Z,19.45
2023-03-21T12:03:38.186Z,19.39
2023-03-21T12:06:22.479Z,19.34
2023-03-21T12:09:03.495Z,19.31
2023-03-21T12:11:41.149Z,19.26
2023-03-21T12:14:17.566Z,19.29
2023-03-21T12:16:59.131Z,19.31
2023-03-21T12:19:52.100Z,19.29
2023-03-21T12:22:33.417Z,19.24
2023-03-21T12:25:10.144Z,19.27
2023-03-21T12:27:50.344Z,19.27
2023-03-21T12:30:31.814Z,19.24
2023-03-21T12:33:25.499Z,19.21
2023-03-21T12:36:12.505Z,19.16
2023-03-21T12:38:53.830Z,19.13
2023-03-21T12:41:26.876Z,19.10
2023-03-21T12:44:02.263Z,19.07
2023-03-21T12:46:37.308Z,19.08
2023-03-21T12:49:14.169Z,19.05
2023-03-21T12:51:46.962Z,19.02
2023-03-21T12:54:26.660Z,19.03
2023-03-21T12:57:01.119Z,19.01
2023-03-21T12:59:38.385Z,19.00
2023-03-21T13:02:20.213Z,18.94
2023-03-21T13:05:01.393Z,18.86
2023-03-21T13:07:37.714Z,18.79
2023-03-21T13:10:15.222Z,18.59
2023-03-21T13:12:55.720Z,18.38
2023-03-21T13:15:39.371Z,18.27
2023-03-21T13:18:20.860Z,18.13
2023-03-21T13:20:53.426Z,18.05
2023-03-21T13:23:23.924Z,18.06
2023-03-21T13:25:55.740Z,18.01
2023-03-21T13:28:29.298Z,17.94
2023-03-21T13:31:19.918Z,17.85
2023-03-21T13:33:50.501Z,17.79
2023-03-21T13:36:26.118Z,17.77
2023-03-21T13:39:01.492Z,17.77
2023-03-21T13:41:35.052Z,17.75
2023-03-21T13:44:23.515Z,17.74
2023-03-21T13:46:59.995Z,17.72
2023-03-21T13:49:32.539Z,17.68
2023-03-21T13:52:03.220Z,17.61
2023-03-21T13:54:51.963Z,17.60
2023-03-21T13:57:40.693Z,17.59
2023-03-21T14:00:20.769Z,17.55
2023-03-21T14:02:59.498Z,17.47
2023-03-21T14:05:30.183Z,17.45
2023-03-21T14:08:15.422Z,17.42
2023-03-21T14:10:52.452Z,17.41
2023-03-21T14:13:25.405Z,17.41
2023-03-21T14:15:58.237Z,17.42
2023-03-21T14:18:52.371Z,17.46
2023-03-21T14:21:24.186Z,17.48
2023-03-21T14:24:02.528Z,17.46
2023-03-21T14:26:33.978Z,17.44
2023-03-21T14:29:07.171Z,17.43
2023-03-21T14:31:36.523Z,17.40
2023-03-21T14:34:06.514Z,17.41
2023-03-21T14:36:43.175Z,17.40
2023-03-21T14:39:17.573Z,17.33
2023-03-21T14:41:49.709Z,17.29
2023-03-21T14:44:24.911Z,17.20
2023-03-21T14:47:01.089Z,17.13
2023-03-21T14:49:32.328Z,17.11
2023-03-21T14:52:06.656Z,17.06
2023-03-21T14:54:39.450Z,17.01
2023-03-21T14:57:13.350Z,16.93
2023-03-21T14:59:43.129Z,16.82
2023-03-21T15:02:18.135Z,16.73
2023-03-21T15:04:51.783Z,16.62
2023-03-21T15:07:27.511Z,16.54
2023-03-21T15:09:58.336Z,16.47
2023-03-21T15:12:27.328Z,16.42
2023-03-21T15:14:57.096Z,16.40
2023-03-21T15:17:27.404Z,16.42
2023-03-21T15:19:56.274Z,16.41
2023-03-21T15:22:32.704Z,16.37
2023-03-21T15:25:05.803Z,16.33
2023-03-21T15:27:42.598Z,16.33
2023-03-21T15:30:21.111Z,16.30
2023-03-21T15:32:51.089Z,16.29
2023-03-21T15:35:25.385Z,16.29
2023-03-21T15:37:56.521Z,16.29
2023-03-21T15:40:28.048Z,16.30
2023-03-21T15:43:13.492Z,16.29
2023-03-21T15:45:49.226Z,16.28
2023-03-21T15:48:26.041Z,16.28
2023-03-21T15:50:59.916Z,16.29
2023-03-21T15:53:33.249Z,16.29
2023-03-21T15:56:05.521Z,16.28
2023-03-21T15:58:36.768Z,16.28
2023-03-21T16:01:10.810Z,16.28
2023-03-21T16:03:45.384Z,16.26
2023-03-21T16:06:21.167Z,16.22
2023-03-21T16:08:50.432Z,16.20
2023-03-21T16:11:25.383Z,16.17
2023-03-21T16:13:55.860Z,16.16
2023-03-21T16:16:26.776Z,16.14
2023-03-21T16:18:57.535Z,16.10
2023-03-21T16:21:28.969Z,16.07
2023-03-21T16:23:58.776Z,16.05
2023-03-21T16:26:30.029Z,16.03
2023-03-21T16:28:59.593Z,15.99
2023-03-21T16:31:30.835Z,15.97
2023-03-21T16:34:01.193Z,15.94
2023-03-21T16:36:32.099Z,15.92
2023-03-21T16:39:01.624Z,15.91
2023-03-21T16:41:30.969Z,15.91
2023-03-21T16:44:00.760Z,15.91
2023-03-21T16:46:29.985Z,15.88
2023-03-21T16:48:59.596Z,15.86
2023-03-21T16:51:33.266Z,15.82
2023-03-21T16:54:02.906Z,15.80
2023-03-21T16:56:38.606Z,15.79
2023-03-21T16:59:08.043Z,15.78
2023-03-21T17:01:39.362Z,15.77
2023-03-21T17:04:08.898Z,15.76
2023-03-21T17:06:44.677Z,15.75
2023-03-21T17:09:13.883Z,15.72
2023-03-21T17:11:43.669Z,15.70
2023-03-21T17:14:15.693Z,15.69
2023-03-21T17:16:45.467Z,15.66
2023-03-21T17:19:16.866Z,15.63
2023-03-21T17:21:46.534Z,15.57
2023-03-21T17:24:16.283Z,15.56
2023-03-21T17:26:45.500Z,15.54
2023-03-21T17:29:15.122Z,15.53
2023-03-21T17:31:46.848Z,15.52
2023-03-21T17:34:16.394Z,15.52
2023-03-21T17:36:48.298Z,15.52
2023-03-21T17:39:20.560Z,15.51
2023-03-21T17:41:49.636Z,15.48
2023-03-21T17:44:18.710Z,15.48
2023-03-21T17:46:50.276Z,15.48
2023-03-21T17:49:20.552Z,15.46
2023-03-21T17:51:49.939Z,15.44
2023-03-21T17:54:18.993Z,15.42
2023-03-21T17:56:48.148Z,15.42
2023-03-21T17:59:17.164Z,15.42
2023-03-21T18:01:47.272Z,15.42
2023-03-21T18:04:16.436Z,15.41
2023-03-21T18:06:45.980Z,15.41
2023-03-21T18:09:18.467Z,15.40
2023-03-21T18:11:50.231Z,15.36
2023-03-21T18:14:25.585Z,15.33
2023-03-21T18:16:57.554Z,15.33
2023-03-21T18:19:27.007Z,15.32
2023-03-21T18:21:56.200Z,15.32
2023-03-21T18:24:25.366Z,15.32
2023-03-21T18:26:54.384Z,15.32
2023-03-21T18:32:12.988Z,15.29
2023-03-21T18:34:41.994Z,15.27
2023-03-21T18:37:13.355Z,15.25
2023-03-21T18:39:43.933Z,15.21
2023-03-21T18:42:17.844Z,15.21
2023-03-21T18:44:51.972Z,15.20
2023-03-21T18:47:21.980Z,15.18
2023-03-21T18:50:14.226Z,15.16
2023-03-21T18:52:41.498Z,15.11
2023-03-21T18:55:14.040Z,15.09
2023-03-21T18:57:43.107Z,15.05
2023-03-21T19:00:16.918Z,15.03
2023-03-21T19:02:50.563Z,15.01
2023-03-21T19:05:22.716Z,14.99
2023-03-21T19:07:52.286Z,14.94
2023-03-21T19:10:23.359Z,14.91
2023-03-21T19:12:54.183Z,14.90
2023-03-21T19:15:23.722Z,14.86
2023-03-21T19:20:46.816Z,14.84
2023-03-21T19:23:17.338Z,14.79
2023-03-21T19:25:47.039Z,14.76
2023-03-21T19:28:16.059Z,14.72
2023-03-21T19:30:50.067Z,14.70
2023-03-21T19:33:20.470Z,14.69
2023-03-21T19:35:50.211Z,14.64
2023-03-21T19:38:19.100Z,14.66
2023-03-21T19:40:48.180Z,14.62
2023-03-21T19:43:33.560Z,14.59
2023-03-21T19:46:03.102Z,14.58
2023-03-21T19:48:32.402Z,14.55
2023-03-21T19:51:26.349Z,14.54
2023-03-21T19:53:51.301Z,14.53
2023-03-21T19:56:23.749Z,14.52
2023-03-21T19:58:55.642Z,14.51
2023-03-21T20:01:25.588Z,14.49
2023-03-21T20:03:54.799Z,14.48
2023-03-21T20:06:23.819Z,14.48
2023-03-21T20:11:42.500Z,14.43
2023-03-21T20:14:11.516Z,14.40
2023-03-21T20:16:43.608Z,14.38
2023-03-21T20:19:15.510Z,14.36
2023-03-21T20:21:49.774Z,14.34
2023-03-21T20:24:22.704Z,14.32
2023-03-21T20:26:53.044Z,14.28
2023-03-21T20:32:11.345Z,14.24
2023-03-21T20:34:40.385Z,14.22
2023-03-21T20:37:09.574Z,14.20
2023-03-21T20:39:38.605Z,14.18
2023-03-21T20:42:07.648Z,14.17
2023-03-21T20:44:56.701Z,14.15
2023-03-21T20:47:26.045Z,14.12
2023-03-21T20:49:56.283Z,14.11
2023-03-21T20:53:00.810Z,14.11
2023-03-21T20:55:14.716Z,14.10
2023-03-21T20:57:44.329Z,14.08
2023-03-21T21:00:16.685Z,14.07
2023-03-21T21:02:47.565Z,14.07
2023-03-21T21:05:25.809Z,14.03
2023-03-21T21:07:58.347Z,13.99
2023-03-21T21:10:28.641Z,13.97
2023-03-21T21:12:57.717Z,13.94
2023-03-21T21:15:26.669Z,13.90
2023-03-21T21:18:05.985Z,13.88
2023-03-21T21:20:36.990Z,13.85
2023-03-21T21:23:07.469Z,13.83
2023-03-21T21:25:36.640Z,13.82
2023-03-21T21:28:08.969Z,13.78
2023-03-21T21:30:40.707Z,13.78
2023-03-21T21:33:09.845Z,13.78
2023-03-21T21:35:38.898Z,13.78
2023-03-21T21:38:07.979Z,13.78
2023-03-21T21:40:37.129Z,13.77
2023-03-21T21:43:06.264Z,13.76
2023-03-21T21:45:36.202Z,13.75
2023-03-21T21:48:06.643Z,13.74
2023-03-21T21:50:37.820Z,13.71
2023-03-21T21:53:07.121Z,13.69
2023-03-21T21:55:36.721Z,13.66
2023-03-21T21:58:07.787Z,13.65
2023-03-21T22:00:37.082Z,13.62
2023-03-21T22:03:07.248Z,13.66
2023-03-21T22:05:36.314Z,13.68
2023-03-21T22:08:05.912Z,13.69
2023-03-21T22:10:35.050Z,13.71
2023-03-21T22:13:04.013Z,13.70
2023-03-21T22:15:33.379Z,13.69
2023-03-21T22:18:02.535Z,13.69
2023-03-21T22:20:33.373Z,13.69
2023-03-21T22:23:02.376Z,13.69
2023-03-21T22:25:33.048Z,13.70
2023-03-21T22:28:02.093Z,13.67
2023-03-21T22:30:31.284Z,13.63
2023-03-21T22:33:09.364Z,13.57
2023-03-21T22:35:39.245Z,13.51
2023-03-21T22:38:08.116Z,13.45
2023-03-21T22:40:37.508Z,13.41
2023-03-21T22:43:08.206Z,13.35
2023-03-21T22:45:37.538Z,13.31
2023-03-21T22:48:06.901Z,13.31
2023-03-21T22:50:35.868Z,13.32
2023-03-21T22:53:04.825Z,13.32
2023-03-21T22:55:33.883Z,13.34
2023-03-21T22:58:02.947Z,13.34
2023-03-21T23:00:32.015Z,13.31
2023-03-21T23:03:00.974Z,13.32
2023-03-21T23:05:30.133Z,13.38
2023-03-21T23:07:58.954Z,13.40
2023-03-21T23:10:27.932Z,13.42
2023-03-21T23:12:56.792Z,13.43
2023-03-21T23:15:25.891Z,13.44
2023-03-21T23:17:54.909Z,13.46
2023-03-21T23:20:23.891Z,13.47
2023-03-21T23:22:52.856Z,13.49
2023-03-21T23:25:24.241Z,13.48
2023-03-21T23:27:53.109Z,13.37
2023-03-21T23:30:22.112Z,13.38
2023-03-21T23:32:51.201Z,13.35
2023-03-21T23:35:20.411Z,13.30
2023-03-21T23:37:51.581Z,13.26
2023-03-21T23:40:20.983Z,13.25
2023-03-21T23:42:49.965Z,13.24
2023-03-21T23:45:19.105Z,13.22
2023-03-21T23:47:48.018Z,13.17
2023-03-21T23:50:17.460Z,13.15
2023-03-21T23:52:46.524Z,13.15
2023-03-21T23:55:15.464Z,13.16
2023-03-21T23:57:44.469Z,13.17
